sensor_id;sensor_type;location;lat;lon;timestamp;pressure;altitude;pressure_sealevel;temperature;humidity
58295;BME280;45705;55.592;37.460;2023-06-04T00:01:58;99298.75;;;5.32;100.00
58295;BME280;45705;55.592;37.460;2023-06-04T00:04:25;99297.16;;;5.26;100.00
58295;BME280;45705;55.592;37.460;2023-06-04T00:06:51;99309.03;;;5.35;100.00
58295;BME280;45705;55.592;37.460;2023-06-04T00:09:17;99306.31;;;5.20;100.00
58295;BME280;45705;55.592;37.460;2023-06-04T00:11:43;99303.91;;;5.33;100.00
58295;BME280;45705;55.592;37.460;2023-06-04T00:14:11;99305.78;;;5.28;100.00
58295;BME280;45705;55.592;37.460;2023-06-04T00:16:37;99311.72;;;5.20;100.00
58295;BME280;45705;55.592;37.460;2023-06-04T00:19:03;99316.56;;;5.18;100.00
58295;BME280;45705;55.592;37.460;2023-06-04T00:21:28;99315.22;;;5.10;100.00
58295;BME280;45705;55.592;37.460;2023-06-04T00:23:54;99320.84;;;5.08;100.00
58295;BME280;45705;55.592;37.460;2023-06-04T00:26:20;99318.97;;;4.99;100.00
58295;BME280;45705;55.592;37.460;2023-06-04T00:28:47;99320.84;;;5.03;100.00
58295;BME280;45705;55.592;37.460;2023-06-04T00:31:13;99322.47;;;5.04;100.00
58295;BME280;45705;55.592;37.460;2023-06-04T00:33:39;99323.00;;;5.11;100.00
58295;BME280;45705;55.592;37.460;2023-06-04T00:36:05;99318.41;;;5.02;100.00
58295;BME280;45705;55.592;37.460;2023-06-04T00:38:31;99326.78;;;5.10;100.00
58295;BME280;45705;55.592;37.460;2023-06-04T00:40:56;99321.41;;;5.21;100.00
58295;BME280;45705;55.592;37.460;2023-06-04T00:43:23;99321.41;;;5.00;100.00
58295;BME280;45705;55.592;37.460;2023-06-04T00:45:52;99337.56;;;5.00;100.00
58295;BME280;45705;55.592;37.460;2023-06-04T00:48:18;99333.75;;;4.91;100.00
58295;BME280;45705;55.592;37.460;2023-06-04T00:50:44;99338.63;;;5.04;100.00
58295;BME280;45705;55.592;37.460;2023-06-04T00:53:10;99338.91;;;5.23;100.00
58295;BME280;45705;55.592;37.460;2023-06-04T00:55:36;99349.44;;;5.25;100.00
58295;BME280;45705;55.592;37.460;2023-06-04T00:58:02;99345.63;;;5.05;100.00
58295;BME280;45705;55.592;37.460;2023-06-04T01:00:30;99353.72;;;5.05;100.00
58295;BME280;45705;55.592;37.460;2023-06-04T01:03:00;99349.44;;;5.15;100.00
58295;BME280;45705;55.592;37.460;2023-06-04T01:05:39;99353.22;;;5.24;100.00
58295;BME280;45705;55.592;37.460;2023-06-04T01:08:08;99351.59;;;5.12;100.00
58295;BME280;45705;55.592;37.460;2023-06-04T01:10:35;99356.41;;;5.16;100.00
58295;BME280;45705;55.592;37.460;2023-06-04T01:13:01;99358.34;;;5.20;100.00
58295;BME280;45705;55.592;37.460;2023-06-04T01:15:27;99357.00;;;5.18;100.00
58295;BME280;45705;55.592;37.460;2023-06-04T01:17:58;99354.28;;;5.18;100.00
58295;BME280;45705;55.592;37.460;2023-06-04T01:20:36;99359.69;;;5.18;100.00
58295;BME280;45705;55.592;37.460;2023-06-04T01:25:42;99363.97;;;5.13;100.00
58295;BME280;45705;55.592;37.460;2023-06-04T01:28:13;99360.78;;;5.22;100.00
58295;BME280;45705;55.592;37.460;2023-06-04T01:30:43;99373.72;;;5.30;100.00
58295;BME280;45705;55.592;37.460;2023-06-04T01:33:13;99369.41;;;5.24;100.00
58295;BME280;45705;55.592;37.460;2023-06-04T01:35:39;99374.50;;;5.15;100.00
58295;BME280;45705;55.592;37.460;2023-06-04T01:38:06;99372.06;;;5.19;100.00
58295;BME280;45705;55.592;37.460;2023-06-04T01:40:31;99376.09;;;5.21;100.00
58295;BME280;45705;55.592;37.460;2023-06-04T01:42:58;99382.34;;;5.22;100.00
58295;BME280;45705;55.592;37.460;2023-06-04T01:45:25;99366.94;;;5.17;100.00
58295;BME280;45705;55.592;37.460;2023-06-04T01:47:53;99381.25;;;5.28;100.00
58295;BME280;45705;55.592;37.460;2023-06-04T01:50:20;99375.31;;;5.10;100.00
58295;BME280;45705;55.592;37.460;2023-06-04T01:52:46;99379.63;;;5.27;100.00
58295;BME280;45705;55.592;37.460;2023-06-04T01:55:13;99376.94;;;5.22;100.00
58295;BME280;45705;55.592;37.460;2023-06-04T01:57:41;99387.72;;;5.32;100.00
58295;BME280;45705;55.592;37.460;2023-06-04T02:00:09;99400.13;;;5.33;100.00
58295;BME280;45705;55.592;37.460;2023-06-04T02:02:41;99394.19;;;5.26;100.00
58295;BME280;45705;55.592;37.460;2023-06-04T02:05:08;99399.03;;;5.29;100.00
58295;BME280;45705;55.592;37.460;2023-06-04T02:10:00;99397.75;;;5.47;100.00
58295;BME280;45705;55.592;37.460;2023-06-04T02:12:29;99394.75;;;5.64;100.00
58295;BME280;45705;55.592;37.460;2023-06-04T02:14:55;99405.00;;;5.46;100.00
58295;BME280;45705;55.592;37.460;2023-06-04T02:17:21;99403.38;;;5.40;100.00
58295;BME280;45705;55.592;37.460;2023-06-04T02:19:47;99400.69;;;5.50;100.00
58295;BME280;45705;55.592;37.460;2023-06-04T02:22:19;99409.31;;;5.58;100.00
58295;BME280;45705;55.592;37.460;2023-06-04T02:24:46;99410.13;;;5.63;100.00
58295;BME280;45705;55.592;37.460;2023-06-04T02:27:13;99408.78;;;5.86;100.00
58295;BME280;45705;55.592;37.460;2023-06-04T02:29:40;99416.38;;;6.00;100.00
58295;BME280;45705;55.592;37.460;2023-06-04T02:32:06;99422.31;;;6.02;100.00
58295;BME280;45705;55.592;37.460;2023-06-04T02:34:32;99409.88;;;5.80;100.00
58295;BME280;45705;55.592;37.460;2023-06-04T02:37:00;99429.34;;;5.98;100.00
58295;BME280;45705;55.592;37.460;2023-06-04T02:39:26;99433.09;;;5.91;100.00
58295;BME280;45705;55.592;37.460;2023-06-04T02:41:52;99430.69;;;6.00;100.00
58295;BME280;45705;55.592;37.460;2023-06-04T02:44:17;99432.00;;;6.08;100.00
58295;BME280;45705;55.592;37.460;2023-06-04T02:46:43;99436.34;;;6.19;100.00
58295;BME280;45705;55.592;37.460;2023-06-04T02:49:10;99445.22;;;6.20;100.00
58295;BME280;45705;55.592;37.460;2023-06-04T02:51:40;99453.59;;;6.39;100.00
58295;BME280;45705;55.592;37.460;2023-06-04T02:54:06;99438.72;;;6.41;100.00
58295;BME280;45705;55.592;37.460;2023-06-04T02:56:33;99451.44;;;6.30;100.00
58295;BME280;45705;55.592;37.460;2023-06-04T02:59:01;99454.13;;;6.36;100.00
58295;BME280;45705;55.592;37.460;2023-06-04T03:01:26;99452.00;;;6.22;100.00
58295;BME280;45705;55.592;37.460;2023-06-04T03:03:53;99466.56;;;6.42;100.00
58295;BME280;45705;55.592;37.460;2023-06-04T03:06:21;99470.31;;;6.36;100.00
58295;BME280;45705;55.592;37.460;2023-06-04T03:08:49;99469.78;;;6.39;100.00
58295;BME280;45705;55.592;37.460;2023-06-04T03:11:16;99483.00;;;6.50;100.00
58295;BME280;45705;55.592;37.460;2023-06-04T03:13:42;99475.03;;;6.95;100.00
58295;BME280;45705;55.592;37.460;2023-06-04T03:16:08;99480.72;;;7.93;100.00
58295;BME280;45705;55.592;37.460;2023-06-04T03:18:40;99474.31;;;8.47;100.00
58295;BME280;45705;55.592;37.460;2023-06-04T03:21:07;99477.97;;;10.05;88.03
58295;BME280;45705;55.592;37.460;2023-06-04T03:23:34;99474.81;;;11.69;77.54
58295;BME280;45705;55.592;37.460;2023-06-04T03:26:04;99472.28;;;12.40;71.21
58295;BME280;45705;55.592;37.460;2023-06-04T03:28:31;99467.88;;;13.59;64.12
58295;BME280;45705;55.592;37.460;2023-06-04T03:30:58;99474.13;;;14.12;61.69
58295;BME280;45705;55.592;37.460;2023-06-04T03:33:25;99479.22;;;14.23;58.85
58295;BME280;45705;55.592;37.460;2023-06-04T03:35:52;99477.13;;;15.23;55.71
58295;BME280;45705;55.592;37.460;2023-06-04T03:38:21;99477.47;;;14.91;54.42
58295;BME280;45705;55.592;37.460;2023-06-04T03:40:48;99476.47;;;15.47;53.53
58295;BME280;45705;55.592;37.460;2023-06-04T03:43:14;99476.75;;;15.54;52.97
58295;BME280;45705;55.592;37.460;2023-06-04T03:45:41;99486.16;;;16.28;50.81
58295;BME280;45705;55.592;37.460;2023-06-04T03:48:08;99484.50;;;15.31;52.87
58295;BME280;45705;55.592;37.460;2023-06-04T03:50:35;99485.09;;;15.36;53.27
58295;BME280;45705;55.592;37.460;2023-06-04T03:53:01;99487.59;;;16.13;50.98
58295;BME280;45705;55.592;37.460;2023-06-04T03:55:29;99486.88;;;16.38;50.55
58295;BME280;45705;55.592;37.460;2023-06-04T03:57:58;99485.28;;;17.07;46.40
58295;BME280;45705;55.592;37.460;2023-06-04T04:00:24;99498.34;;;16.85;46.60
58295;BME280;45705;55.592;37.460;2023-06-04T04:02:53;99501.88;;;16.86;47.21
58295;BME280;45705;55.592;37.460;2023-06-04T04:05:25;99513.03;;;16.02;48.38
58295;BME280;45705;55.592;37.460;2023-06-04T04:07:52;99505.88;;;16.43;49.21
58295;BME280;45705;55.592;37.460;2023-06-04T04:10:22;99497.31;;;17.39;46.30
58295;BME280;45705;55.592;37.460;2023-06-04T04:12:48;99501.00;;;16.61;47.98
58295;BME280;45705;55.592;37.460;2023-06-04T04:15:14;99499.16;;;17.10;47.88
58295;BME280;45705;55.592;37.460;2023-06-04T04:17:42;99508.75;;;17.17;46.07
58295;BME280;45705;55.592;37.460;2023-06-04T04:20:09;99502.94;;;17.18;46.40
58295;BME280;45705;55.592;37.460;2023-06-04T04:22:40;99513.00;;;17.14;46.18
58295;BME280;45705;55.592;37.460;2023-06-04T04:25:08;99507.03;;;17.49;45.87
58295;BME280;45705;55.592;37.460;2023-06-04T04:27:35;99506.81;;;17.42;45.72
58295;BME280;45705;55.592;37.460;2023-06-04T04:30:06;99505.06;;;18.75;43.41
58295;BME280;45705;55.592;37.460;2023-06-04T04:32:33;99503.78;;;18.84;41.65
58295;BME280;45705;55.592;37.460;2023-06-04T04:34:59;99513.72;;;19.05;40.73
58295;BME280;45705;55.592;37.460;2023-06-04T04:37:32;99503.28;;;19.65;39.76
58295;BME280;45705;55.592;37.460;2023-06-04T04:39:58;99511.94;;;18.37;42.37
58295;BME280;45705;55.592;37.460;2023-06-04T04:42:29;99507.94;;;19.61;40.52
58295;BME280;45705;55.592;37.460;2023-06-04T04:44:55;99507.13;;;19.77;39.14
58295;BME280;45705;55.592;37.460;2023-06-04T04:47:24;99515.94;;;19.31;40.53
58295;BME280;45705;55.592;37.460;2023-06-04T04:49:50;99519.91;;;20.86;36.96
58295;BME280;45705;55.592;37.460;2023-06-04T04:52:16;99514.75;;;19.83;38.81
58295;BME280;45705;55.592;37.460;2023-06-04T04:54:42;99515.84;;;19.98;37.64
58295;BME280;45705;55.592;37.460;2023-06-04T04:57:08;99518.31;;;20.03;37.67
58295;BME280;45705;55.592;37.460;2023-06-04T04:59:35;99523.28;;;19.43;39.49
58295;BME280;45705;55.592;37.460;2023-06-04T05:02:01;99530.16;;;19.68;38.72
58295;BME280;45705;55.592;37.460;2023-06-04T05:04:28;99529.72;;;19.66;37.98
58295;BME280;45705;55.592;37.460;2023-06-04T05:06:54;99540.81;;;19.03;39.51
58295;BME280;45705;55.592;37.460;2023-06-04T05:09:21;99532.09;;;20.42;37.07
58295;BME280;45705;55.592;37.460;2023-06-04T05:11:48;99534.06;;;19.67;39.12
58295;BME280;45705;55.592;37.460;2023-06-04T05:14:14;99542.66;;;19.98;38.25
58295;BME280;45705;55.592;37.460;2023-06-04T05:16:41;99528.06;;;21.02;35.73
58295;BME280;45705;55.592;37.460;2023-06-04T05:19:08;99526.00;;;21.72;34.39
58295;BME280;45705;55.592;37.460;2023-06-04T05:21:38;99519.97;;;21.96;34.05
58295;BME280;45705;55.592;37.460;2023-06-04T05:24:06;99524.03;;;22.02;33.45
58295;BME280;45705;55.592;37.460;2023-06-04T05:26:36;99526.72;;;23.04;31.93
58295;BME280;45705;55.592;37.460;2023-06-04T05:29:08;99510.03;;;22.22;32.75
58295;BME280;45705;55.592;37.460;2023-06-04T05:31:38;99519.06;;;22.19;32.39
58295;BME280;45705;55.592;37.460;2023-06-04T05:34:07;99518.00;;;21.67;33.18
58295;BME280;45705;55.592;37.460;2023-06-04T05:36:37;99527.69;;;19.99;35.61
58295;BME280;45705;55.592;37.460;2023-06-04T05:39:05;99531.38;;;21.11;33.65
58295;BME280;45705;55.592;37.460;2023-06-04T05:41:52;99522.88;;;22.37;31.80
58295;BME280;45705;55.592;37.460;2023-06-04T05:44:18;99538.41;;;22.87;31.38
58295;BME280;45705;55.592;37.460;2023-06-04T05:46:44;99534.38;;;22.39;30.84
58295;BME280;45705;55.592;37.460;2023-06-04T05:49:11;99522.13;;;23.23;29.38
58295;BME280;45705;55.592;37.460;2023-06-04T05:51:36;99525.16;;;23.07;30.19
58295;BME280;45705;55.592;37.460;2023-06-04T05:54:02;99530.47;;;22.85;31.08
58295;BME280;45705;55.592;37.460;2023-06-04T05:56:30;99542.59;;;21.22;33.94
58295;BME280;45705;55.592;37.460;2023-06-04T05:58:58;99541.69;;;20.68;33.99
58295;BME280;45705;55.592;37.460;2023-06-04T06:01:26;99539.84;;;21.22;32.50
58295;BME280;45705;55.592;37.460;2023-06-04T06:03:52;99532.97;;;22.22;31.36
58295;BME280;45705;55.592;37.460;2023-06-04T06:06:19;99533.41;;;22.62;30.42
58295;BME280;45705;55.592;37.460;2023-06-04T06:08:46;99534.06;;;22.14;31.83
58295;BME280;45705;55.592;37.460;2023-06-04T06:11:12;99552.75;;;20.29;34.89
58295;BME280;45705;55.592;37.460;2023-06-04T06:13:38;99554.78;;;19.26;36.90
58295;BME280;45705;55.592;37.460;2023-06-04T06:16:04;99545.22;;;20.06;35.68
58295;BME280;45705;55.592;37.460;2023-06-04T06:18:30;99531.81;;;21.93;32.43
58295;BME280;45705;55.592;37.460;2023-06-04T06:20:56;99537.38;;;23.02;30.87
58295;BME280;45705;55.592;37.460;2023-06-04T06:23:23;99549.06;;;19.35;35.52
58295;BME280;45705;55.592;37.460;2023-06-04T06:25:50;99552.56;;;19.83;35.52
58295;BME280;45705;55.592;37.460;2023-06-04T06:28:22;99547.72;;;22.00;32.22
58295;BME280;45705;55.592;37.460;2023-06-04T06:30:49;99552.13;;;21.24;32.25
58295;BME280;45705;55.592;37.460;2023-06-04T06:33:15;99553.03;;;19.02;36.13
58295;BME280;45705;55.592;37.460;2023-06-04T06:35:41;99551.47;;;17.51;39.59
58295;BME280;45705;55.592;37.460;2023-06-04T06:38:07;99545.47;;;19.82;34.80
58295;BME280;45705;55.592;37.460;2023-06-04T06:40:33;99550.31;;;20.24;34.59
58295;BME280;45705;55.592;37.460;2023-06-04T06:42:58;99559.56;;;18.53;37.67
58295;BME280;45705;55.592;37.460;2023-06-04T06:45:24;99555.88;;;18.33;38.17
58295;BME280;45705;55.592;37.460;2023-06-04T06:47:50;99548.94;;;17.46;40.27
58295;BME280;45705;55.592;37.460;2023-06-04T06:50:15;99538.34;;;18.54;39.20
58295;BME280;45705;55.592;37.460;2023-06-04T06:52:41;99536.53;;;19.37;36.73
58295;BME280;45705;55.592;37.460;2023-06-04T06:55:07;99542.09;;;19.21;37.40
58295;BME280;45705;55.592;37.460;2023-06-04T06:57:33;99545.47;;;19.82;35.62
58295;BME280;45705;55.592;37.460;2023-06-04T06:59:59;99542.78;;;21.56;33.04
58295;BME280;45705;55.592;37.460;2023-06-04T07:02:25;99553.72;;;20.79;32.88
58295;BME280;45705;55.592;37.460;2023-06-04T07:04:51;99555.94;;;20.12;33.89
58295;BME280;45705;55.592;37.460;2023-06-04T07:07:16;99551.25;;;18.65;35.35
58295;BME280;45705;55.592;37.460;2023-06-04T07:09:42;99551.06;;;18.86;35.59
58295;BME280;45705;55.592;37.460;2023-06-04T07:12:08;99558.53;;;18.29;36.52
58295;BME280;45705;55.592;37.460;2023-06-04T07:14:34;99563.28;;;16.81;39.27
58295;BME280;45705;55.592;37.460;2023-06-04T07:17:00;99563.00;;;16.62;38.52
58295;BME280;45705;55.592;37.460;2023-06-04T07:19:26;99553.84;;;18.74;35.37
58295;BME280;45705;55.592;37.460;2023-06-04T07:21:54;99552.47;;;19.95;33.88
58295;BME280;45705;55.592;37.460;2023-06-04T07:24:20;99553.63;;;18.95;34.93
58295;BME280;45705;55.592;37.460;2023-06-04T07:26:45;99558.41;;;18.82;34.48
58295;BME280;45705;55.592;37.460;2023-06-04T07:29:11;99558.50;;;19.34;34.10
58295;BME280;45705;55.592;37.460;2023-06-04T07:31:37;99556.81;;;20.16;32.41
58295;BME280;45705;55.592;37.460;2023-06-04T07:34:02;99560.94;;;19.71;33.25
58295;BME280;45705;55.592;37.460;2023-06-04T07:36:28;99557.50;;;19.58;34.50
58295;BME280;45705;55.592;37.460;2023-06-04T07:38:54;99558.91;;;19.67;33.50
58295;BME280;45705;55.592;37.460;2023-06-04T07:41:20;99559.88;;;19.08;34.72
58295;BME280;45705;55.592;37.460;2023-06-04T07:43:45;99565.38;;;18.36;36.22
58295;BME280;45705;55.592;37.460;2023-06-04T07:46:11;99567.78;;;18.09;35.54
58295;BME280;45705;55.592;37.460;2023-06-04T07:48:37;99570.00;;;17.05;37.84
58295;BME280;45705;55.592;37.460;2023-06-04T07:51:02;99570.13;;;17.58;37.51
58295;BME280;45705;55.592;37.460;2023-06-04T07:53:30;99574.31;;;16.06;39.69
58295;BME280;45705;55.592;37.460;2023-06-04T07:55:56;99580.06;;;15.92;40.77
58295;BME280;45705;55.592;37.460;2023-06-04T07:58:23;99575.03;;;16.36;39.77
58295;BME280;45705;55.592;37.460;2023-06-04T08:00:48;99571.75;;;16.22;39.97
58295;BME280;45705;55.592;37.460;2023-06-04T08:03:14;99569.22;;;15.74;41.22
58295;BME280;45705;55.592;37.460;2023-06-04T08:05:44;99568.38;;;15.14;41.11
58295;BME280;45705;55.592;37.460;2023-06-04T08:08:09;99577.72;;;16.03;38.74
58295;BME280;45705;55.592;37.460;2023-06-04T08:10:35;99581.00;;;15.96;38.81
58295;BME280;45705;55.592;37.460;2023-06-04T08:13:01;99571.19;;;15.65;39.42
58295;BME280;45705;55.592;37.460;2023-06-04T08:15:27;99585.22;;;16.14;38.58
58295;BME280;45705;55.592;37.460;2023-06-04T08:18:13;99575.63;;;15.79;38.25
58295;BME280;45705;55.592;37.460;2023-06-04T08:20:56;99574.38;;;15.67;39.67
58295;BME280;45705;55.592;37.460;2023-06-04T08:23:37;99578.16;;;15.54;40.00
58295;BME280;45705;55.592;37.460;2023-06-04T08:26:23;99574.84;;;15.99;39.67
58295;BME280;45705;55.592;37.460;2023-06-04T08:29:03;99572.66;;;15.63;37.91
58295;BME280;45705;55.592;37.460;2023-06-04T08:31:34;99564.34;;;16.01;36.96
58295;BME280;45705;55.592;37.460;2023-06-04T08:34:08;99568.75;;;16.36;33.92
58295;BME280;45705;55.592;37.460;2023-06-04T08:36:35;99566.81;;;15.94;34.97
58295;BME280;45705;55.592;37.460;2023-06-04T08:39:00;99568.38;;;15.14;37.27
58295;BME280;45705;55.592;37.460;2023-06-04T08:43:55;99576.56;;;15.53;37.48
58295;BME280;45705;55.592;37.460;2023-06-04T08:46:21;99580.81;;;14.94;38.25
58295;BME280;45705;55.592;37.460;2023-06-04T08:48:48;99575.72;;;14.84;38.08
58295;BME280;45705;55.592;37.460;2023-06-04T08:51:15;99583.00;;;14.54;38.54
58295;BME280;45705;55.592;37.460;2023-06-04T08:53:42;99590.69;;;14.52;39.36
58295;BME280;45705;55.592;37.460;2023-06-04T08:56:08;99590.25;;;14.24;40.22
58295;BME280;45705;55.592;37.460;2023-06-04T08:58:35;99596.53;;;14.68;40.32
58295;BME280;45705;55.592;37.460;2023-06-04T09:01:01;99596.69;;;14.45;41.04
58295;BME280;45705;55.592;37.460;2023-06-04T09:03:29;99598.31;;;14.11;41.94
58295;BME280;45705;55.592;37.460;2023-06-04T09:06:01;99599.56;;;14.23;41.85
58295;BME280;45705;55.592;37.460;2023-06-04T09:08:31;99600.69;;;14.30;42.51
58295;BME280;45705;55.592;37.460;2023-06-04T09:11:00;99592.50;;;14.22;42.86
58295;BME280;45705;55.592;37.460;2023-06-04T09:13:31;99600.03;;;13.98;43.33
58295;BME280;45705;55.592;37.460;2023-06-04T09:16:01;99601.16;;;13.89;43.99
58295;BME280;45705;55.592;37.460;2023-06-04T09:18:28;99601.56;;;13.65;44.44
58295;BME280;45705;55.592;37.460;2023-06-04T09:21:05;99598.13;;;14.25;42.76
58295;BME280;45705;55.592;37.460;2023-06-04T09:23:34;99598.94;;;14.26;43.05
58295;BME280;45705;55.592;37.460;2023-06-04T09:26:09;99597.19;;;14.21;42.66
58295;BME280;45705;55.592;37.460;2023-06-04T09:28:39;99596.69;;;14.28;42.38
58295;BME280;45705;55.592;37.460;2023-06-04T09:31:08;99608.91;;;14.39;41.90
58295;BME280;45705;55.592;37.460;2023-06-04T09:33:44;99594.41;;;14.82;39.99
58295;BME280;45705;55.592;37.460;2023-06-04T09:36:11;99598.50;;;15.06;38.97
58295;BME280;45705;55.592;37.460;2023-06-04T09:38:36;99591.66;;;15.29;38.01
58295;BME280;45705;55.592;37.460;2023-06-04T09:41:03;99598.50;;;15.83;37.12
58295;BME280;45705;55.592;37.460;2023-06-04T09:43:32;99589.69;;;15.98;36.59
58295;BME280;45705;55.592;37.460;2023-06-04T09:46:15;99589.59;;;15.56;37.49
58295;BME280;45705;55.592;37.460;2023-06-04T09:48:42;99589.59;;;15.56;37.97
58295;BME280;45705;55.592;37.460;2023-06-04T09:51:13;99585.06;;;15.60;37.85
58295;BME280;45705;55.592;37.460;2023-06-04T09:54:02;99579.22;;;16.54;36.40
58295;BME280;45705;55.592;37.460;2023-06-04T09:56:29;99574.34;;;16.72;35.11
58295;BME280;45705;55.592;37.460;2023-06-04T09:58:59;99582.59;;;16.39;35.10
58295;BME280;45705;55.592;37.460;2023-06-04T10:01:29;99583.00;;;15.87;36.09
58295;BME280;45705;55.592;37.460;2023-06-04T10:03:58;99581.66;;;15.63;36.60
58295;BME280;45705;55.592;37.460;2023-06-04T10:06:32;99584.69;;;15.70;36.96
58295;BME280;45705;55.592;37.460;2023-06-04T10:08:59;99579.59;;;15.60;36.42
58295;BME280;45705;55.592;37.460;2023-06-04T10:11:34;99583.88;;;15.70;36.02
58295;BME280;45705;55.592;37.460;2023-06-04T10:14:03;99573.16;;;15.56;37.12
58295;BME280;45705;55.592;37.460;2023-06-04T10:16:33;99578.41;;;15.40;37.16
58295;BME280;45705;55.592;37.460;2023-06-04T10:19:04;99577.84;;;15.26;37.37
58295;BME280;45705;55.592;37.460;2023-06-04T10:21:32;99580.16;;;15.45;36.61
58295;BME280;45705;55.592;37.460;2023-06-04T10:24:00;99569.63;;;15.26;37.05
58295;BME280;45705;55.592;37.460;2023-06-04T10:26:26;99581.66;;;15.33;37.55
58295;BME280;45705;55.592;37.460;2023-06-04T10:28:53;99576.59;;;15.06;38.23
58295;BME280;45705;55.592;37.460;2023-06-04T10:31:18;99581.25;;;15.14;38.68
58295;BME280;45705;55.592;37.460;2023-06-04T10:33:44;99588.47;;;15.57;38.98
58295;BME280;45705;55.592;37.460;2023-06-04T10:36:21;99588.28;;;14.85;40.08
58295;BME280;45705;55.592;37.460;2023-06-04T10:38:51;99579.63;;;14.66;40.83
58295;BME280;45705;55.592;37.460;2023-06-04T10:41:18;99580.75;;;14.65;40.38
58295;BME280;45705;55.592;37.460;2023-06-04T10:43:48;99596.13;;;14.95;39.99
58295;BME280;45705;55.592;37.460;2023-06-04T10:46:19;99585.13;;;15.13;39.74
58295;BME280;45705;55.592;37.460;2023-06-04T10:48:50;99587.09;;;15.04;39.75
58295;BME280;45705;55.592;37.460;2023-06-04T10:51:28;99590.38;;;15.35;39.13
58295;BME280;45705;55.592;37.460;2023-06-04T10:53:57;99581.19;;;15.61;37.65
58295;BME280;45705;55.592;37.460;2023-06-04T10:56:30;99581.19;;;15.61;37.25
58295;BME280;45705;55.592;37.460;2023-06-04T10:59:02;99586.47;;;15.66;36.83
58295;BME280;45705;55.592;37.460;2023-06-04T11:01:38;99578.25;;;15.66;36.08
58295;BME280;45705;55.592;37.460;2023-06-04T11:04:04;99572.75;;;15.66;35.43
58295;BME280;45705;55.592;37.460;2023-06-04T11:06:29;99574.19;;;15.72;36.04
58295;BME280;45705;55.592;37.460;2023-06-04T11:09:05;99573.28;;;15.89;36.27
58295;BME280;45705;55.592;37.460;2023-06-04T11:11:31;99577.59;;;15.69;35.96
58295;BME280;45705;55.592;37.460;2023-06-04T11:14:10;99584.06;;;15.73;35.76
58295;BME280;45705;55.592;37.460;2023-06-04T11:16:38;99576.94;;;15.43;36.05
58295;BME280;45705;55.592;37.460;2023-06-04T11:19:04;99582.97;;;15.27;36.57
58295;BME280;45705;55.592;37.460;2023-06-04T11:21:30;99577.41;;;15.45;36.90
58295;BME280;45705;55.592;37.460;2023-06-04T11:23:59;99583.75;;;14.89;37.67
58295;BME280;45705;55.592;37.460;2023-06-04T11:26:33;99582.63;;;15.29;37.41
58295;BME280;45705;55.592;37.460;2023-06-04T11:29:00;99584.81;;;15.44;37.09
58295;BME280;45705;55.592;37.460;2023-06-04T11:31:26;99579.41;;;15.35;37.13
58295;BME280;45705;55.592;37.460;2023-06-04T11:33:52;99585.34;;;14.99;37.35
58295;BME280;45705;55.592;37.460;2023-06-04T11:36:36;99581.94;;;15.41;37.04
58295;BME280;45705;55.592;37.460;2023-06-04T11:39:03;99578.41;;;15.40;37.26
58295;BME280;45705;55.592;37.460;2023-06-04T11:41:33;99583.50;;;15.50;36.61
58295;BME280;45705;55.592;37.460;2023-06-04T11:44:03;99580.63;;;15.47;36.94
58295;BME280;45705;55.592;37.460;2023-06-04T11:46:33;99585.75;;;15.57;36.61
58295;BME280;45705;55.592;37.460;2023-06-04T11:48:59;99581.16;;;15.31;37.08
58295;BME280;45705;55.592;37.460;2023-06-04T11:51:27;99582.91;;;15.06;37.57
58295;BME280;45705;55.592;37.460;2023-06-04T11:53:53;99577.56;;;15.10;37.20
58295;BME280;45705;55.592;37.460;2023-06-04T11:56:20;99576.03;;;14.91;36.60
58295;BME280;45705;55.592;37.460;2023-06-04T11:58:46;99590.66;;;14.87;37.18
58295;BME280;45705;55.592;37.460;2023-06-04T12:01:13;99580.19;;;14.98;36.64
58295;BME280;45705;55.592;37.460;2023-06-04T12:03:40;99593.88;;;15.06;36.88
58295;BME280;45705;55.592;37.460;2023-06-04T12:06:17;99592.56;;;15.51;36.04
58295;BME280;45705;55.592;37.460;2023-06-04T12:08:52;99589.75;;;15.30;36.45
58295;BME280;45705;55.592;37.460;2023-06-04T12:11:31;99587.22;;;15.16;36.87
58295;BME280;45705;55.592;37.460;2023-06-04T12:13:59;99595.84;;;15.35;37.37
58295;BME280;45705;55.592;37.460;2023-06-04T12:16:26;99593.91;;;15.27;37.96
58295;BME280;45705;55.592;37.460;2023-06-04T12:18:52;99594.53;;;15.42;38.21
58295;BME280;45705;55.592;37.460;2023-06-04T12:21:29;99587.56;;;15.44;36.76
58295;BME280;45705;55.592;37.460;2023-06-04T12:24:09;99597.66;;;15.61;36.58
58295;BME280;45705;55.592;37.460;2023-06-04T12:26:36;99596.78;;;15.40;36.26
58295;BME280;45705;55.592;37.460;2023-06-04T12:29:14;99585.16;;;15.04;36.13
58295;BME280;45705;55.592;37.460;2023-06-04T12:31:44;99601.41;;;15.18;36.43
58295;BME280;45705;55.592;37.460;2023-06-04T12:34:14;99592.94;;;14.85;36.86
58295;BME280;45705;55.592;37.460;2023-06-04T12:36:40;99600.94;;;15.46;36.34
58295;BME280;45705;55.592;37.460;2023-06-04T12:39:06;99599.28;;;15.24;36.22
58295;BME280;45705;55.592;37.460;2023-06-04T12:41:33;99597.34;;;15.15;36.35
58295;BME280;45705;55.592;37.460;2023-06-04T12:44:00;99593.44;;;15.34;36.28
58295;BME280;45705;55.592;37.460;2023-06-04T12:46:26;99590.38;;;15.35;36.81
58295;BME280;45705;55.592;37.460;2023-06-04T12:48:54;99592.28;;;15.35;36.42
58295;BME280;45705;55.592;37.460;2023-06-04T12:51:20;99590.06;;;15.28;36.96
58295;BME280;45705;55.592;37.460;2023-06-04T12:53:47;99596.25;;;15.08;37.01
58295;BME280;45705;55.592;37.460;2023-06-04T12:56:13;99590.63;;;15.04;37.35
58295;BME280;45705;55.592;37.460;2023-06-04T12:58:39;99581.84;;;15.28;36.84
58295;BME280;45705;55.592;37.460;2023-06-04T13:01:04;99585.53;;;15.32;37.08
58295;BME280;45705;55.592;37.460;2023-06-04T13:03:31;99592.44;;;15.39;37.35